sensor_id;sensor_type;location;lat;lon;timestamp;pressure;altitude;pressure_sealevel;temperature;humidity
71805;BME280;59654;52.216;5.616;2023-05-12T00:00:27;101487.31;;;9.20;100.00
71805;BME280;59654;52.216;5.616;2023-05-12T00:00:58;101486.44;;;9.19;100.00
71805;BME280;59654;52.216;5.616;2023-05-12T00:01:29;101491.75;;;9.19;100.00
71805;BME280;59654;52.216;5.616;2023-05-12T00:02:00;101493.50;;;9.20;100.00
71805;BME280;59654;52.216;5.616;2023-05-12T00:02:31;101486.47;;;9.18;100.00
71805;BME280;59654;52.216;5.616;2023-05-12T00:03:02;101483.00;;;9.16;100.00
71805;BME280;59654;52.216;5.616;2023-05-12T00:03:33;101479.50;;;9.14;100.00
71805;BME280;59654;52.216;5.616;2023-05-12T00:04:04;101485.69;;;9.14;100.00
71805;BME280;59654;52.216;5.616;2023-05-12T00:04:35;101483.88;;;9.16;100.00
71805;BME280;59654;52.216;5.616;2023-05-12T00:05:07;101487.41;;;9.17;100.00
71805;BME280;59654;52.216;5.616;2023-05-12T00:05:38;101479.44;;;9.17;100.00
71805;BME280;59654;52.216;5.616;2023-05-12T00:06:09;101486.47;;;9.18;100.00
71805;BME280;59654;52.216;5.616;2023-05-12T00:06:40;101479.44;;;9.17;100.00
71805;BME280;59654;52.216;5.616;2023-05-12T00:07:11;101482.97;;;9.17;100.00
71805;BME280;59654;52.216;5.616;2023-05-12T00:07:42;101484.63;;;9.21;100.00
71805;BME280;59654;52.216;5.616;2023-05-12T00:08:13;101482.00;;;9.20;100.00
71805;BME280;59654;52.216;5.616;2023-05-12T00:08:44;101478.41;;;9.22;100.00
71805;BME280;59654;52.216;5.616;2023-05-12T00:09:15;101485.47;;;9.23;100.00
71805;BME280;59654;52.216;5.616;2023-05-12T00:09:45;101482.78;;;9.25;100.00
71805;BME280;59654;52.216;5.616;2023-05-12T00:10:16;101483.66;;;9.25;100.00
71805;BME280;59654;52.216;5.616;2023-05-12T00:10:47;101487.19;;;9.26;100.00
71805;BME280;59654;52.216;5.616;2023-05-12T00:11:18;101488.97;;;9.25;100.00
71805;BME280;59654;52.216;5.616;2023-05-12T00:11:50;101482.81;;;9.23;100.00
71805;BME280;59654;52.216;5.616;2023-05-12T00:12:21;101488.13;;;9.23;100.00
71805;BME280;59654;52.216;5.616;2023-05-12T00:12:52;101485.47;;;9.23;100.00
71805;BME280;59654;52.216;5.616;2023-05-12T00:13:24;101481.09;;;9.21;100.00
71805;BME280;59654;52.216;5.616;2023-05-12T00:13:56;101487.28;;;9.21;100.00
71805;BME280;59654;52.216;5.616;2023-05-12T00:14:27;101484.59;;;9.23;100.00
71805;BME280;59654;52.216;5.616;2023-05-12T00:14:58;101485.47;;;9.23;100.00
71805;BME280;59654;52.216;5.616;2023-05-12T00:15:29;101480.16;;;9.23;100.00
71805;BME280;59654;52.216;5.616;2023-05-12T00:16:01;101489.03;;;9.22;100.00
71805;BME280;59654;52.216;5.616;2023-05-12T00:16:32;101482.91;;;9.19;100.00
71805;BME280;59654;52.216;5.616;2023-05-12T00:17:03;101488.22;;;9.19;100.00
71805;BME280;59654;52.216;5.616;2023-05-12T00:17:36;101479.34;;;9.20;100.00
71805;BME280;59654;52.216;5.616;2023-05-12T00:18:07;101480.22;;;9.20;100.00
71805;BME280;59654;52.216;5.616;2023-05-12T00:18:38;101485.53;;;9.20;100.00
71805;BME280;59654;52.216;5.616;2023-05-12T00:19:08;101483.75;;;9.21;100.00
71805;BME280;59654;52.216;5.616;2023-05-12T00:19:39;101481.09;;;9.21;100.00
71805;BME280;59654;52.216;5.616;2023-05-12T00:20:13;101482.81;;;9.23;100.00
71805;BME280;59654;52.216;5.616;2023-05-12T00:20:44;101488.94;;;9.27;100.00
71805;BME280;59654;52.216;5.616;2023-05-12T00:21:15;101491.59;;;9.27;100.00
71805;BME280;59654;52.216;5.616;2023-05-12T00:21:46;101486.22;;;9.30;100.00
71805;BME280;59654;52.216;5.616;2023-05-12T00:22:17;101492.41;;;9.31;100.00
71805;BME280;59654;52.216;5.616;2023-05-12T00:22:48;101485.38;;;9.28;100.00
71805;BME280;59654;52.216;5.616;2023-05-12T00:23:18;101491.66;;;9.24;100.00
71805;BME280;59654;52.216;5.616;2023-05-12T00:23:49;101487.22;;;9.24;100.00
71805;BME280;59654;52.216;5.616;2023-05-12T00:24:20;101482.78;;;9.25;100.00
71805;BME280;59654;52.216;5.616;2023-05-12T00:24:51;101486.28;;;9.27;100.00
71805;BME280;59654;52.216;5.616;2023-05-12T00:25:22;101480.97;;;9.27;100.00
71805;BME280;59654;52.216;5.616;2023-05-12T00:25:52;101488.94;;;9.27;100.00
71805;BME280;59654;52.216;5.616;2023-05-12T00:26:23;101480.97;;;9.27;100.00
71805;BME280;59654;52.216;5.616;2023-05-12T00:26:55;101488.03;;;9.28;100.00
71805;BME280;59654;52.216;5.616;2023-05-12T00:27:27;101480.91;;;9.30;100.00
71805;BME280;59654;52.216;5.616;2023-05-12T00:28:00;101479.09;;;9.32;100.00
71805;BME280;59654;52.216;5.616;2023-05-12T00:28:30;101479.91;;;9.34;100.00
71805;BME280;59654;52.216;5.616;2023-05-12T00:29:02;101480.84;;;9.33;100.00
71805;BME280;59654;52.216;5.616;2023-05-12T00:29:33;101481.66;;;9.35;100.00
71805;BME280;59654;52.216;5.616;2023-05-12T00:30:04;101486.94;;;9.37;100.00
71805;BME280;59654;52.216;5.616;2023-05-12T00:30:36;101472.75;;;9.36;100.00
71805;BME280;59654;52.216;5.616;2023-05-12T00:31:07;101478.03;;;9.38;100.00
71805;BME280;59654;52.216;5.616;2023-05-12T00:31:38;101473.66;;;9.35;100.00
71805;BME280;59654;52.216;5.616;2023-05-12T00:32:09;101476.38;;;9.34;100.00
71805;BME280;59654;52.216;5.616;2023-05-12T00:32:40;101476.38;;;9.34;100.00
71805;BME280;59654;52.216;5.616;2023-05-12T00:33:12;101474.63;;;9.33;100.00
71805;BME280;59654;52.216;5.616;2023-05-12T00:33:42;101476.38;;;9.34;100.00
71805;BME280;59654;52.216;5.616;2023-05-12T00:34:13;101479.84;;;9.36;100.00
71805;BME280;59654;52.216;5.616;2023-05-12T00:34:44;101479.91;;;9.34;100.00
71805;BME280;59654;52.216;5.616;2023-05-12T00:35:16;101475.50;;;9.33;100.00
71805;BME280;59654;52.216;5.616;2023-05-12T00:35:47;101474.56;;;9.34;100.00
71805;BME280;59654;52.216;5.616;2023-05-12T00:36:17;101474.66;;;9.31;100.00
71805;BME280;59654;52.216;5.616;2023-05-12T00:36:48;101475.56;;;9.30;100.00
71805;BME280;59654;52.216;5.616;2023-05-12T00:37:19;101474.72;;;9.28;100.00
71805;BME280;59654;52.216;5.616;2023-05-12T00:37:50;101475.63;;;9.27;100.00
71805;BME280;59654;52.216;5.616;2023-05-12T00:38:21;101476.50;;;9.27;100.00
71805;BME280;59654;52.216;5.616;2023-05-12T00:38:52;101466.84;;;9.23;100.00
71805;BME280;59654;52.216;5.616;2023-05-12T00:39:23;101467.72;;;9.24;100.00
71805;BME280;59654;52.216;5.616;2023-05-12T00:39:54;101473.06;;;9.22;100.00
71805;BME280;59654;52.216;5.616;2023-05-12T00:40:25;101476.66;;;9.21;100.00
71805;BME280;59654;52.216;5.616;2023-05-12T00:40:56;101462.50;;;9.19;100.00
71805;BME280;59654;52.216;5.616;2023-05-12T00:41:27;101466.88;;;9.22;100.00
71805;BME280;59654;52.216;5.616;2023-05-12T00:41:58;101476.63;;;9.23;100.00
71805;BME280;59654;52.216;5.616;2023-05-12T00:42:29;101465.06;;;9.24;100.00
71805;BME280;59654;52.216;5.616;2023-05-12T00:43:00;101464.16;;;9.25;100.00
71805;BME280;59654;52.216;5.616;2023-05-12T00:43:31;101461.47;;;9.26;100.00
71805;BME280;59654;52.216;5.616;2023-05-12T00:44:03;101474.72;;;9.28;100.00
71805;BME280;59654;52.216;5.616;2023-05-12T00:44:34;101467.66;;;9.27;100.00
71805;BME280;59654;52.216;5.616;2023-05-12T00:45:05;101465.94;;;9.24;100.00
71805;BME280;59654;52.216;5.616;2023-05-12T00:45:37;101466.81;;;9.25;100.00
71805;BME280;59654;52.216;5.616;2023-05-12T00:46:08;101470.34;;;9.25;100.00
71805;BME280;59654;52.216;5.616;2023-05-12T00:46:39;101465.06;;;9.24;100.00
71805;BME280;59654;52.216;5.616;2023-05-12T00:47:11;101465.03;;;9.25;100.00
71805;BME280;59654;52.216;5.616;2023-05-12T00:47:43;101468.56;;;9.26;100.00
71805;BME280;59654;52.216;5.616;2023-05-12T00:48:15;101457.91;;;9.26;100.00
71805;BME280;59654;52.216;5.616;2023-05-12T00:48:46;101457.94;;;9.24;100.00
71805;BME280;59654;52.216;5.616;2023-05-12T00:49:19;101461.50;;;9.25;100.00
71805;BME280;59654;52.216;5.616;2023-05-12T00:49:50;101460.56;;;9.27;100.00
71805;BME280;59654;52.216;5.616;2023-05-12T00:50:21;101456.97;;;9.29;100.00
71805;BME280;59654;52.216;5.616;2023-05-12T00:50:53;101454.28;;;9.30;100.00
71805;BME280;59654;52.216;5.616;2023-05-12T00:51:25;101464.94;;;9.30;100.00
71805;BME280;59654;52.216;5.616;2023-05-12T00:51:57;101472.94;;;9.29;100.00
71805;BME280;59654;52.216;5.616;2023-05-12T00:52:29;101458.78;;;9.26;100.00
71805;BME280;59654;52.216;5.616;2023-05-12T00:53:00;101460.59;;;9.26;100.00
71805;BME280;59654;52.216;5.616;2023-05-12T00:53:31;101460.59;;;9.26;100.00
71805;BME280;59654;52.216;5.616;2023-05-12T00:54:02;101465.03;;;9.25;100.00
71805;BME280;59654;52.216;5.616;2023-05-12T00:54:34;101460.63;;;9.24;100.00
71805;BME280;59654;52.216;5.616;2023-05-12T00:55:06;101454.41;;;9.24;100.00
71805;BME280;59654;52.216;5.616;2023-05-12T00:55:37;101457.09;;;9.22;100.00
71805;BME280;59654;52.216;5.616;2023-05-12T00:56:11;101460.69;;;9.21;100.00
71805;BME280;59654;52.216;5.616;2023-05-12T00:56:42;101452.72;;;9.20;100.00
71805;BME280;59654;52.216;5.616;2023-05-12T00:57:13;101459.81;;;9.21;100.00
71805;BME280;59654;52.216;5.616;2023-05-12T00:57:44;101450.03;;;9.21;100.00
71805;BME280;59654;52.216;5.616;2023-05-12T00:58:16;101450.06;;;9.20;100.00
71805;BME280;59654;52.216;5.616;2023-05-12T00:58:46;101448.31;;;9.19;100.00
71805;BME280;59654;52.216;5.616;2023-05-12T00:59:19;101446.56;;;9.18;100.00
71805;BME280;59654;52.216;5.616;2023-05-12T00:59:49;101452.72;;;9.20;100.00
71805;BME280;59654;52.216;5.616;2023-05-12T01:00:21;101446.53;;;9.19;100.00
71805;BME280;59654;52.216;5.616;2023-05-12T01:00:52;101443.88;;;9.19;100.00
71805;BME280;59654;52.216;5.616;2023-05-12T01:01:23;101452.72;;;9.20;100.00
71805;BME280;59654;52.216;5.616;2023-05-12T01:01:57;101442.09;;;9.20;100.00
71805;BME280;59654;52.216;5.616;2023-05-12T01:02:29;101449.16;;;9.21;100.00
71805;BME280;59654;52.216;5.616;2023-05-12T01:03:01;101449.16;;;9.21;100.00
71805;BME280;59654;52.216;5.616;2023-05-12T01:03:34;101443.84;;;9.21;100.00
71805;BME280;59654;52.216;5.616;2023-05-12T01:04:07;101437.63;;;9.20;100.00
71805;BME280;59654;52.216;5.616;2023-05-12T01:04:39;101442.13;;;9.18;100.00
71805;BME280;59654;52.216;5.616;2023-05-12T01:05:11;101445.75;;;9.16;100.00
71805;BME280;59654;52.216;5.616;2023-05-12T01:07:05;101442.25;;;9.14;100.00
71805;BME280;59654;52.216;5.616;2023-05-12T01:07:45;101446.69;;;9.13;100.00
71805;BME280;59654;52.216;5.616;2023-05-12T01:08:18;101440.50;;;9.13;100.00
71805;BME280;59654;52.216;5.616;2023-05-12T01:08:51;101440.44;;;9.16;100.00
71805;BME280;59654;52.216;5.616;2023-05-12T01:09:24;101439.53;;;9.17;100.00
71805;BME280;59654;52.216;5.616;2023-05-12T01:09:55;101443.88;;;9.19;100.00
71805;BME280;59654;52.216;5.616;2023-05-12T01:10:26;101442.09;;;9.20;100.00
71805;BME280;59654;52.216;5.616;2023-05-12T01:10:58;101441.19;;;9.21;100.00
71805;BME280;59654;52.216;5.616;2023-05-12T01:11:29;101439.41;;;9.21;100.00
71805;BME280;59654;52.216;5.616;2023-05-12T01:12:01;101447.41;;;9.20;100.00
71805;BME280;59654;52.216;5.616;2023-05-12T01:12:33;101437.63;;;9.20;100.00
71805;BME280;59654;52.216;5.616;2023-05-12T01:13:05;101435.00;;;9.19;100.00
71805;BME280;59654;52.216;5.616;2023-05-12T01:13:38;101432.41;;;9.17;100.00
71805;BME280;59654;52.216;5.616;2023-05-12T01:14:11;101436.84;;;9.17;100.00
71805;BME280;59654;52.216;5.616;2023-05-12T01:14:42;101440.44;;;9.16;100.00
71805;BME280;59654;52.216;5.616;2023-05-12T01:15:13;101437.75;;;9.17;100.00
71805;BME280;59654;52.216;5.616;2023-05-12T01:15:46;101448.38;;;9.17;100.00
71805;BME280;59654;52.216;5.616;2023-05-12T01:16:22;101434.13;;;9.18;100.00
71805;BME280;59654;52.216;5.616;2023-05-12T01:16:59;101439.44;;;9.20;100.00
71805;BME280;59654;52.216;5.616;2023-05-12T01:17:34;101435.81;;;9.22;100.00
71805;BME280;59654;52.216;5.616;2023-05-12T01:18:10;101436.69;;;9.23;100.00
71805;BME280;59654;52.216;5.616;2023-05-12T01:18:45;101442.00;;;9.24;100.00
71805;BME280;59654;52.216;5.616;2023-05-12T01:19:46;101441.94;;;9.27;100.00
71805;BME280;59654;52.216;5.616;2023-05-12T01:20:22;101444.53;;;9.31;100.00
71805;BME280;59654;52.216;5.616;2023-05-12T01:20:55;101442.75;;;9.30;100.00
71805;BME280;59654;52.216;5.616;2023-05-12T01:21:27;101446.38;;;9.27;100.00
71805;BME280;59654;52.216;5.616;2023-05-12T01:21:59;101442.84;;;9.26;100.00
71805;BME280;59654;52.216;5.616;2023-05-12T01:22:32;101444.63;;;9.26;100.00
71805;BME280;59654;52.216;5.616;2023-05-12T01:23:05;101444.63;;;9.26;100.00
71805;BME280;59654;52.216;5.616;2023-05-12T01:23:41;101439.25;;;9.27;100.00
71805;BME280;59654;52.216;5.616;2023-05-12T01:24:19;101447.22;;;9.29;100.00
71805;BME280;59654;52.216;5.616;2023-05-12T01:24:54;101441.97;;;9.26;100.00
71805;BME280;59654;52.216;5.616;2023-05-12T01:25:31;101441.94;;;9.27;100.00
71805;BME280;59654;52.216;5.616;2023-05-12T01:26:07;101442.84;;;9.26;100.00
71805;BME280;59654;52.216;5.616;2023-05-12T01:26:40;101441.94;;;9.27;100.00
71805;BME280;59654;52.216;5.616;2023-05-12T01:27:12;101441.97;;;9.26;100.00
71805;BME280;59654;52.216;5.616;2023-05-12T01:27:45;101440.19;;;9.25;100.00
71805;BME280;59654;52.216;5.616;2023-05-12T01:28:17;101439.31;;;9.24;100.00
71805;BME280;59654;52.216;5.616;2023-05-12T01:28:50;101438.44;;;9.24;100.00
71805;BME280;59654;52.216;5.616;2023-05-12T01:29:23;101441.09;;;9.25;100.00
71805;BME280;59654;52.216;5.616;2023-05-12T01:30:00;101442.00;;;9.24;100.00
71805;BME280;59654;52.216;5.616;2023-05-12T01:30:35;101439.31;;;9.24;100.00
71805;BME280;59654;52.216;5.616;2023-05-12T01:31:08;101440.19;;;9.25;100.00
71805;BME280;59654;52.216;5.616;2023-05-12T01:31:42;101441.13;;;9.24;100.00
71805;BME280;59654;52.216;5.616;2023-05-12T01:32:15;101444.66;;;9.24;100.00
71805;BME280;59654;52.216;5.616;2023-05-12T01:32:46;101439.31;;;9.24;100.00
71805;BME280;59654;52.216;5.616;2023-05-12T01:33:17;101438.41;;;9.25;100.00
71805;BME280;59654;52.216;5.616;2023-05-12T01:33:48;101443.72;;;9.27;100.00
71805;BME280;59654;52.216;5.616;2023-05-12T01:34:19;101441.13;;;9.24;100.00
71805;BME280;59654;52.216;5.616;2023-05-12T01:34:53;101437.53;;;9.25;100.00
71805;BME280;59654;52.216;5.616;2023-05-12T01:35:25;101441.09;;;9.25;100.00
71805;BME280;59654;52.216;5.616;2023-05-12T01:36:01;101445.53;;;9.25;100.00
71805;BME280;59654;52.216;5.616;2023-05-12T01:36:32;101439.31;;;9.24;100.00
71805;BME280;59654;52.216;5.616;2023-05-12T01:37:03;101437.53;;;9.25;100.00
71805;BME280;59654;52.216;5.616;2023-05-12T01:37:36;101444.66;;;9.24;100.00
71805;BME280;59654;52.216;5.616;2023-05-12T01:38:09;101441.94;;;9.27;100.00
71805;BME280;59654;52.216;5.616;2023-05-12T01:38:43;101447.25;;;9.27;100.00
71805;BME280;59654;52.216;5.616;2023-05-12T01:39:14;101441.97;;;9.26;100.00
71805;BME280;59654;52.216;5.616;2023-05-12T01:39:45;101437.50;;;9.26;100.00
71805;BME280;59654;52.216;5.616;2023-05-12T01:40:21;101441.97;;;9.26;100.00
71805;BME280;59654;52.216;5.616;2023-05-12T01:40:52;101442.00;;;9.24;100.00
71805;BME280;59654;52.216;5.616;2023-05-12T01:41:23;101444.69;;;9.23;100.00
71805;BME280;59654;52.216;5.616;2023-05-12T01:41:54;101439.31;;;9.24;100.00
71805;BME280;59654;52.216;5.616;2023-05-12T01:42:26;101441.09;;;9.25;100.00
71805;BME280;59654;52.216;5.616;2023-05-12T01:42:57;101441.94;;;9.27;100.00
71805;BME280;59654;52.216;5.616;2023-05-12T01:43:31;101444.50;;;9.32;100.00
71805;BME280;59654;52.216;5.616;2023-05-12T01:44:02;101445.22;;;9.37;100.00
71805;BME280;59654;52.216;5.616;2023-05-12T01:44:33;101446.09;;;9.38;100.00
71805;BME280;59654;52.216;5.616;2023-05-12T01:45:04;101446.97;;;9.38;100.00
71805;BME280;59654;52.216;5.616;2023-05-12T01:45:36;101446.97;;;9.38;100.00
71805;BME280;59654;52.216;5.616;2023-05-12T01:46:08;101439.00;;;9.38;100.00
71805;BME280;59654;52.216;5.616;2023-05-12T01:46:41;101442.53;;;9.39;100.00
71805;BME280;59654;52.216;5.616;2023-05-12T01:47:12;101440.75;;;9.39;100.00
71805;BME280;59654;52.216;5.616;2023-05-12T01:47:45;101448.66;;;9.42;100.00
71805;BME280;59654;52.216;5.616;2023-05-12T01:48:16;101445.16;;;9.40;100.00
71805;BME280;59654;52.216;5.616;2023-05-12T01:48:47;101439.78;;;9.43;100.00
71805;BME280;59654;52.216;5.616;2023-05-12T01:49:18;101451.28;;;9.44;100.00
71805;BME280;59654;52.216;5.616;2023-05-12T01:49:50;101444.22;;;9.43;100.00
71805;BME280;59654;52.216;5.616;2023-05-12T01:50:23;101448.66;;;9.42;100.00
71805;BME280;59654;52.216;5.616;2023-05-12T01:50:54;101442.50;;;9.40;100.00
71805;BME280;59654;52.216;5.616;2023-05-12T01:51:25;101447.81;;;9.40;100.00
71805;BME280;59654;52.216;5.616;2023-05-12T01:51:57;101446.97;;;9.38;100.00
71805;BME280;59654;52.216;5.616;2023-05-12T01:52:33;101440.81;;;9.36;100.00
71805;BME280;59654;52.216;5.616;2023-05-12T01:53:04;101443.50;;;9.35;100.00
71805;BME280;59654;52.216;5.616;2023-05-12T01:53:36;101438.31;;;9.30;100.00
71805;BME280;59654;52.216;5.616;2023-05-12T01:54:08;101445.47;;;9.28;100.00
71805;BME280;59654;52.216;5.616;2023-05-12T01:54:42;101438.34;;;9.29;100.00
71805;BME280;59654;52.216;5.616;2023-05-12T01:55:15;101442.81;;;9.28;100.00
71805;BME280;59654;52.216;5.616;2023-05-12T01:55:55;101448.13;;;9.28;100.00
71805;BME280;59654;52.216;5.616;2023-05-12T01:56:28;101449.94;;;9.26;100.00
71805;BME280;59654;52.216;5.616;2023-05-12T01:56:59;101443.72;;;9.27;100.00
71805;BME280;59654;52.216;5.616;2023-05-12T01:57:30;101447.25;;;9.27;100.00
71805;BME280;59654;52.216;5.616;2023-05-12T01:58:03;101446.34;;;9.29;100.00
71805;BME280;59654;52.216;5.616;2023-05-12T01:58:36;101442.75;;;9.30;100.00
71805;BME280;59654;52.216;5.616;2023-05-12T01:59:08;101441.00;;;9.29;100.00
71805;BME280;59654;52.216;5.616;2023-05-12T01:59:38;101435.75;;;9.25;100.00
71805;BME280;59654;52.216;5.616;2023-05-12T02:00:10;101439.31;;;9.24;100.00
71805;BME280;59654;52.216;5.616;2023-05-12T02:00:45;101444.69;;;9.23;100.00
71805;BME280;59654;52.216;5.616;2023-05-12T02:01:20;101444.72;;;9.21;100.00
71805;BME280;59654;52.216;5.616;2023-05-12T02:01:52;101444.69;;;9.23;100.00
71805;BME280;59654;52.216;5.616;2023-05-12T02:02:30;101443.84;;;9.21;100.00
71805;BME280;59654;52.216;5.616;2023-05-12T02:03:03;101439.41;;;9.21;100.00
71805;BME280;59654;52.216;5.616;2023-05-12T02:03:34;101434.94;;;9.22;100.00
71805;BME280;59654;52.216;5.616;2023-05-12T02:04:10;101439.34;;;9.23;100.00
71805;BME280;59654;52.216;5.616;2023-05-12T02:04:41;101442.88;;;9.25;100.00
71805;BME280;59654;52.216;5.616;2023-05-12T02:05:14;101443.72;;;9.27;100.00
71805;BME280;59654;52.216;5.616;2023-05-12T02:05:48;101445.47;;;9.28;100.00
71805;BME280;59654;52.216;5.616;2023-05-12T02:06:19;101437.41;;;9.31;100.00
71805;BME280;59654;52.216;5.616;2023-05-12T02:06:50;101447.16;;;9.32;100.00
71805;BME280;59654;52.216;5.616;2023-05-12T02:07:21;101443.50;;;9.35;100.00
71805;BME280;59654;52.216;5.616;2023-05-12T02:07:52;101448.06;;;9.31;100.00
71805;BME280;59654;52.216;5.616;2023-05-12T02:08:23;101447.22;;;9.29;100.00
71805;BME280;59654;52.216;5.616;2023-05-12T02:08:54;101449.00;;;9.29;100.00
71805;BME280;59654;52.216;5.616;2023-05-12T02:09:25;101449.03;;;9.27;100.00
71805;BME280;59654;52.216;5.616;2023-05-12T02:09:59;101450.81;;;9.26;100.00
71805;BME280;59654;52.216;5.616;2023-05-12T02:10:31;101445.47;;;9.28;100.00
71805;BME280;59654;52.216;5.616;2023-05-12T02:11:07;101443.69;;;9.29;100.00
71805;BME280;59654;52.216;5.616;2023-05-12T02:11:39;101450.69;;;9.33;100.00
71805;BME280;59654;52.216;5.616;2023-05-12T02:12:10;101444.44;;;9.34;100.00
71805;BME280;59654;52.216;5.616;2023-05-12T02:12:41;101443.56;;;9.33;100.00
71805;BME280;59654;52.216;5.616;2023-05-12T02:13:12;101449.72;;;9.35;100.00
71805;BME280;59654;52.216;5.616;2023-05-12T02:13:43;101448.81;;;9.36;100.00
71805;BME280;59654;52.216;5.616;2023-05-12T02:14:14;101454.13;;;9.36;100.00
71805;BME280;59654;52.216;5.616;2023-05-12T02:14:45;101447.94;;;9.36;100.00
71805;BME280;59654;52.216;5.616;2023-05-12T02:15:16;101456.81;;;9.35;100.00
71805;BME280;59654;52.216;5.616;2023-05-12T02:15:49;101452.38;;;9.35;100.00
71805;BME280;59654;52.216;5.616;2023-05-12T02:16:21;101445.28;;;9.34;100.00
71805;BME280;59654;52.216;5.616;2023-05-12T02:16:52;101448.81;;;9.36;100.00
71805;BME280;59654;52.216;5.616;2023-05-12T02:17:26;101444.34;;;9.37;100.00
71805;BME280;59654;52.216;5.616;2023-05-12T02:18:01;101447.00;;;9.37;100.00
71805;BME280;59654;52.216;5.616;2023-05-12T02:18:32;101442.63;;;9.34;100.00
71805;BME280;59654;52.216;5.616;2023-05-12T02:19:03;101439.13;;;9.34;100.00
71805;BME280;59654;52.216;5.616;2023-05-12T02:19:35;101440.03;;;9.33;100.00
71805;BME280;59654;52.216;5.616;2023-05-12T02:20:07;101440.97;;;9.30;100.00
71805;BME280;59654;52.216;5.616;2023-05-12T02:20:38;101440.91;;;9.33;100.00
71805;BME280;59654;52.216;5.616;2023-05-12T02:21:09;101441.78;;;9.34;100.00
71805;BME280;59654;52.216;5.616;2023-05-12T02:21:40;101442.69;;;9.33;100.00
71805;BME280;59654;52.216;5.616;2023-05-12T02:22:11;101444.53;;;9.31;100.00
71805;BME280;59654;52.216;5.616;2023-05-12T02:22:42;101435.75;;;9.25;100.00
71805;BME280;59654;52.216;5.616;2023-05-12T02:23:13;101437.63;;;9.20;100.00
71805;BME280;59654;52.216;5.616;2023-05-12T02:23:43;101442.22;;;9.15;100.00
71805;BME280;59654;52.216;5.616;2023-05-12T02:24:14;101436.94;;;9.14;100.00
71805;BME280;59654;52.216;5.616;2023-05-12T02:24:49;101436.94;;;9.14;100.00
71805;BME280;59654;52.216;5.616;2023-05-12T02:25:20;101440.41;;;9.17;100.00
71805;BME280;59654;52.216;5.616;2023-05-12T02:25:52;101440.44;;;9.16;100.00
71805;BME280;59654;52.216;5.616;2023-05-12T02:26:23;101436.91;;;9.15;100.00
71805;BME280;59654;52.216;5.616;2023-05-12T02:26:54;101443.91;;;9.18;100.00
71805;BME280;59654;52.216;5.616;2023-05-12T02:27:25;101439.47;;;9.18;100.00
71805;BME280;59654;52.216;5.616;2023-05-12T02:27:56;101443.06;;;9.17;100.00
71805;BME280;59654;52.216;5.616;2023-05-12T02:28:27;101442.19;;;9.17;100.00
71805;BME280;59654;52.216;5.616;2023-05-12T02:28:58;101437.81;;;9.14;100.00
71805;BME280;59654;52.216;5.616;2023-05-12T02:29:29;101441.31;;;9.16;100.00
71805;BME280;59654;52.216;5.616;2023-05-12T02:30:00;101442.25;;;9.14;100.00
71805;BME280;59654;52.216;5.616;2023-05-12T02:30:31;101439.56;;;9.15;100.00
71805;BME280;59654;52.216;5.616;2023-05-12T02:31:02;101440.31;;;9.20;100.00
71805;BME280;59654;52.216;5.616;2023-05-12T02:31:34;101435.81;;;9.22;100.00
71805;BME280;59654;52.216;5.616;2023-05-12T02:32:06;101436.66;;;9.24;100.00
71805;BME280;59654;52.216;5.616;2023-05-12T02:32:37;101434.88;;;9.25;100.00
71805;BME280;59654;52.216;5.616;2023-05-12T02:33:10;101439.34;;;9.23;100.00
71805;BME280;59654;52.216;5.616;2023-05-12T02:33:41;101439.41;;;9.21;100.00
71805;BME280;59654;52.216;5.616;2023-05-12T02:34:12;101439.44;;;9.20;100.00
71805;BME280;59654;52.216;5.616;2023-05-12T02:34:43;101443.88;;;9.19;100.00
71805;BME280;59654;52.216;5.616;2023-05-12T02:35:15;101433.31;;;9.16;100.00
71805;BME280;59654;52.216;5.616;2023-05-12T02:35:46;101438.59;;;9.18;100.00
71805;BME280;59654;52.216;5.616;2023-05-12T02:36:17;101435.00;;;9.19;100.00
71805;BME280;59654;52.216;5.616;2023-05-12T02:36:48;101436.75;;;9.20;100.00
71805;BME280;59654;52.216;5.616;2023-05-12T02:37:18;101433.19;;;9.21;100.00
71805;BME280;59654;52.216;5.616;2023-05-12T02:37:50;101433.22;;;9.19;100.00
71805;BME280;59654;52.216;5.616;2023-05-12T02:38:21;101433.25;;;9.18;100.00
71805;BME280;59654;52.216;5.616;2023-05-12T02:38:52;101432.41;;;9.17;100.00
71805;BME280;59654;52.216;5.616;2023-05-12T02:39:23;101427.09;;;9.17;100.00
71805;BME280;59654;52.216;5.616;2023-05-12T02:39:54;101420.03;;;9.16;100.00
71805;BME280;59654;52.216;5.616;2023-05-12T02:40:25;101431.56;;;9.15;100.00
71805;BME280;59654;52.216;5.616;2023-05-12T02:40:56;101432.47;;;9.14;100.00
71805;BME280;59654;52.216;5.616;2023-05-12T02:41:27;101434.22;;;9.15;100.00
71805;BME280;59654;52.216;5.616;2023-05-12T02:41:58;101438.69;;;9.15;100.00
71805;BME280;59654;52.216;5.616;2023-05-12T02:42:29;101436.03;;;9.15;100.00
71805;BME280;59654;52.216;5.616;2023-05-12T02:43:05;101435.06;;;9.17;100.00
71805;BME280;59654;52.216;5.616;2023-05-12T02:43:36;101434.13;;;9.18;100.00
71805;BME280;59654;52.216;5.616;2023-05-12T02:44:07;101434.94;;;9.22;100.00
71805;BME280;59654;52.216;5.616;2023-05-12T02:44:39;101425.19;;;9.22;100.00
71805;BME280;59654;52.216;5.616;2023-05-12T02:45:10;101434.03;;;9.23;100.00
71805;BME280;59654;52.216;5.616;2023-05-12T02:45:42;101430.50;;;9.22;100.00
71805;BME280;59654;52.216;5.616;2023-05-12T02:46:13;101432.22;;;9.25;100.00
71805;BME280;59654;52.216;5.616;2023-05-12T02:46:44;101430.41;;;9.27;100.00
71805;BME280;59654;52.216;5.616;2023-05-12T02:47:15;101426.84;;;9.28;100.00
71805;BME280;59654;52.216;5.616;2023-05-12T02:47:46;101432.19;;;9.26;100.00
71805;BME280;59654;52.216;5.616;2023-05-12T02:48:17;101431.31;;;9.26;100.00
71805;BME280;59654;52.216;5.616;2023-05-12T02:48:48;101434.91;;;9.23;100.00